Midland, Texas
Current Conditions -  °F | °C
As of 8:15 AM on Saturday 20 Dec 2014 (Local Time) from KMDD Reporting Station
Moderate Fog Moderate Fog  
Wind Chill:   Ceiling: 200
Heat Index:   Visibility: 0.25mi
Dew Point:   Wind: 3mph
Humidity: 100%   Direction: 120°ESE
Pressure: 30.17"   Gusts: NA
Location:  32°N, 102.07°W
Report Text: KMDD 201415Z AUTO 12003KT 1/4SM FG OVC002 03/03 A3017 RMK AO2 T00340034
Loading
Personal Weather Stations






























Interactive Weather Map New forecast layout! Learn more

10-Day Weather Forecast

Advertisements
Track Severe Weather on mobile